createdAt,value
2022-09-04T00:00:19.225Z,15.70
2022-09-04T00:02:52.029Z,15.80
2022-09-04T00:05:37.276Z,15.80
2022-09-04T00:08:42.444Z,15.80
2022-09-04T00:11:44.874Z,15.60
2022-09-04T00:14:35.203Z,15.80
2022-09-04T00:17:10.676Z,15.70
2022-09-04T00:19:56.371Z,15.70
2022-09-04T00:22:39.548Z,15.80
2022-09-04T00:25:26.032Z,15.70
2022-09-04T00:28:09.327Z,15.70
2022-09-04T00:30:46.243Z,15.90
2022-09-04T00:33:17.324Z,15.80
2022-09-04T00:35:50.613Z,15.80
2022-09-04T00:38:26.430Z,16.00
2022-09-04T00:41:11.070Z,16.10
2022-09-04T00:44:18.984Z,16.00
2022-09-04T00:47:05.902Z,16.00
2022-09-04T00:50:07.259Z,16.00
2022-09-04T00:52:57.449Z,16.10
2022-09-04T00:55:44.678Z,15.80
2022-09-04T00:58:42.887Z,15.80
2022-09-04T01:01:16.755Z,15.70
2022-09-04T01:03:59.263Z,15.80
2022-09-04T01:06:39.117Z,15.70
2022-09-04T01:09:41.269Z,15.90
2022-09-04T01:12:23.057Z,16.10
2022-09-04T01:15:14.311Z,16.30
2022-09-04T01:17:50.506Z,16.30
2022-09-04T01:20:30.587Z,16.30
2022-09-04T01:23:34.295Z,16.20
2022-09-04T01:26:17.097Z,16.00
2022-09-04T01:29:14.650Z,15.90
2022-09-04T01:32:00.005Z,15.90
2022-09-04T01:34:35.298Z,15.70
2022-09-04T01:37:43.533Z,15.80
2022-09-04T01:40:35.658Z,15.60
2022-09-04T01:43:06.174Z,15.50
2022-09-04T01:45:56.686Z,15.70
2022-09-04T01:48:36.571Z,15.70
2022-09-04T01:51:23.086Z,15.60
2022-09-04T01:54:15.758Z,15.70
2022-09-04T01:56:50.086Z,15.80
2022-09-04T02:00:10.941Z,15.80
2022-09-04T02:03:00.295Z,15.80
2022-09-04T02:05:50.248Z,15.80
2022-09-04T02:08:55.201Z,15.70
2022-09-04T02:11:28.137Z,15.90
2022-09-04T02:14:25.996Z,15.90
2022-09-04T02:17:12.857Z,15.90
2022-09-04T02:20:09.324Z,15.90
2022-09-04T02:22:48.108Z,15.70
2022-09-04T02:25:41.206Z,15.70
2022-09-04T02:28:36.891Z,15.70
2022-09-04T02:31:24.127Z,15.70
2022-09-04T02:33:59.607Z,15.60
2022-09-04T02:36:38.333Z,15.40
2022-09-04T02:39:40.719Z,15.50
2022-09-04T02:42:37.107Z,15.40
2022-09-04T02:45:48.149Z,15.40
2022-09-04T02:48:23.563Z,15.30
2022-09-04T02:51:15.142Z,15.10
2022-09-04T02:54:21.293Z,15.20
2022-09-04T02:57:09.159Z,15.10
2022-09-04T02:59:50.314Z,15.00
2022-09-04T03:02:42.714Z,14.90
2022-09-04T03:05:42.094Z,14.80
2022-09-04T03:08:36.198Z,14.80
2022-09-04T03:11:13.656Z,14.90
2022-09-04T03:13:47.406Z,14.90
2022-09-04T03:16:23.942Z,14.80
2022-09-04T03:19:39.087Z,14.60
2022-09-04T03:22:24.102Z,15.00
2022-09-04T03:25:28.356Z,15.10
2022-09-04T03:27:55.066Z,15.10
2022-09-04T03:30:21.881Z,15.20
2022-09-04T03:33:07.469Z,15.00
2022-09-04T03:35:55.022Z,14.80
2022-09-04T03:38:57.152Z,14.90
2022-09-04T03:41:42.418Z,14.90
2022-09-04T03:44:46.974Z,14.80
2022-09-04T03:47:42.609Z,14.40
2022-09-04T03:50:37.975Z,14.40
2022-09-04T03:53:29.845Z,14.30
2022-09-04T03:56:20.048Z,14.20
2022-09-04T03:59:19.667Z,14.30
2022-09-04T04:02:09.069Z,14.40
2022-09-04T04:04:50.901Z,14.30
2022-09-04T04:08:03.611Z,14.30
2022-09-04T04:10:47.397Z,14.30
2022-09-04T04:13:14.034Z,14.50
2022-09-04T04:16:15.534Z,14.40
2022-09-04T04:19:10.745Z,14.40
2022-09-04T04:21:54.773Z,14.30
2022-09-04T04:24:39.212Z,14.40
2022-09-04T04:27:26.199Z,14.30
2022-09-04T04:30:04.695Z,14.30
2022-09-04T04:33:09.562Z,14.30
2022-09-04T04:36:27.818Z,14.30
2022-09-04T04:39:20.980Z,14.40
2022-09-04T04:42:06.172Z,14.50
2022-09-04T04:45:10.682Z,14.60
2022-09-04T04:47:55.884Z,14.40
2022-09-04T04:50:40.402Z,14.30
2022-09-04T04:53:22.958Z,14.10
2022-09-04T04:56:15.475Z,14.10
2022-09-04T04:59:13.848Z,14.20
2022-09-04T05:01:51.741Z,14.20
2022-09-04T05:04:23.936Z,14.30
2022-09-04T05:07:21.886Z,14.20
2022-09-04T05:10:10.794Z,14.30
2022-09-04T05:13:02.009Z,14.30
2022-09-04T05:16:05.489Z,14.10
2022-09-04T05:18:43.766Z,14.00
2022-09-04T05:21:23.169Z,14.00
2022-09-04T05:24:14.731Z,14.00
2022-09-04T05:27:04.262Z,14.00
2022-09-04T05:29:53.640Z,13.80
2022-09-04T05:32:49.578Z,13.90
2022-09-04T05:35:37.234Z,13.90
2022-09-04T05:38:18.035Z,14.00
2022-09-04T05:41:08.736Z,14.00
2022-09-04T05:43:49.309Z,14.20
2022-09-04T05:46:37.849Z,14.10
2022-09-04T05:49:33.674Z,14.10
2022-09-04T05:52:38.143Z,14.20
2022-09-04T05:55:51.035Z,14.40
2022-09-04T05:58:45.996Z,14.30
2022-09-04T06:01:35.908Z,14.40
2022-09-04T06:04:43.270Z,14.50
2022-09-04T06:07:21.029Z,14.70
2022-09-04T06:10:13.913Z,14.90
2022-09-04T06:13:03.259Z,15.20
2022-09-04T06:15:57.161Z,15.40
2022-09-04T06:18:35.732Z,15.50
2022-09-04T06:21:14.957Z,15.50
2022-09-04T06:23:56.599Z,15.60
2022-09-04T06:27:00.870Z,15.70
2022-09-04T06:29:46.304Z,15.60
2022-09-04T06:32:37.947Z,15.50
2022-09-04T06:35:18.701Z,15.70
2022-09-04T06:38:08.737Z,15.50
2022-09-04T06:40:46.650Z,15.30
2022-09-04T06:43:13.342Z,15.30
2022-09-04T06:46:28.706Z,15.20
2022-09-04T06:49:18.964Z,15.30
2022-09-04T06:51:52.481Z,15.60
2022-09-04T06:54:22.156Z,15.70
2022-09-04T06:57:24.199Z,15.80
2022-09-04T07:00:00.829Z,15.90
2022-09-04T07:02:55.538Z,16.10
2022-09-04T07:05:56.474Z,16.30
2022-09-04T07:08:42.377Z,16.00
2022-09-04T07:11:15.338Z,15.80
2022-09-04T07:13:57.699Z,16.10
2022-09-04T07:16:44.424Z,16.50
2022-09-04T07:19:40.723Z,16.50
2022-09-04T07:22:46.667Z,16.60
2022-09-04T07:25:32.776Z,16.70
2022-09-04T07:27:59.418Z,16.70
2022-09-04T07:30:31.050Z,16.90
2022-09-04T07:33:07.320Z,17.20
2022-09-04T07:35:40.864Z,17.30
2022-09-04T07:38:07.502Z,17.40
2022-09-04T07:40:38.319Z,17.40
2022-09-04T07:43:21.321Z,17.40
2022-09-04T07:46:12.075Z,17.50
2022-09-04T07:48:54.013Z,17.70
2022-09-04T07:51:27.021Z,17.60
2022-09-04T07:54:29.515Z,17.30
2022-09-04T07:57:18.991Z,17.20
2022-09-04T07:59:56.030Z,17.30
2022-09-04T08:02:33.855Z,17.70
2022-09-04T08:05:20.436Z,17.70
2022-09-04T08:08:03.723Z,18.00
2022-09-04T08:10:31.435Z,18.40
2022-09-04T08:13:40.342Z,18.50
2022-09-04T08:16:28.532Z,18.70
2022-09-04T08:19:30.159Z,18.70
2022-09-04T08:21:57.393Z,18.70
2022-09-04T08:24:45.185Z,18.90
2022-09-04T08:27:26.874Z,18.90
2022-09-04T08:30:07.328Z,19.10
2022-09-04T08:32:54.851Z,18.80
2022-09-04T08:35:49.746Z,18.50
2022-09-04T08:38:35.609Z,18.60
2022-09-04T08:41:39.941Z,18.90
2022-09-04T08:44:26.884Z,18.80
2022-09-04T08:47:13.182Z,18.70
2022-09-04T08:49:42.998Z,18.80
2022-09-04T08:52:39.910Z,19.20
2022-09-04T08:55:33.190Z,19.50
2022-09-04T08:58:47.864Z,19.50
2022-09-04T09:01:21.124Z,19.70
2022-09-04T09:03:56.703Z,19.80
2022-09-04T09:07:08.294Z,20.10
2022-09-04T09:10:12.421Z,20.30
2022-09-04T09:12:59.798Z,20.40
2022-09-04T09:15:53.418Z,20.10
2022-09-04T09:18:56.610Z,20.20
2022-09-04T09:21:44.962Z,20.10
2022-09-04T09:24:26.562Z,20.50
2022-09-04T09:27:11.512Z,20.90
2022-09-04T09:30:07.326Z,21.10
2022-09-04T09:32:58.820Z,21.00
2022-09-04T09:35:54.398Z,21.40
2022-09-04T09:38:34.768Z,21.60
2022-09-04T09:41:46.373Z,21.40
2022-09-04T09:44:22.223Z,21.70
2022-09-04T09:47:23.019Z,21.50
2022-09-04T09:50:08.078Z,21.40
2022-09-04T09:52:53.430Z,21.30
2022-09-04T09:55:22.910Z,21.10
2022-09-04T09:58:08.177Z,21.30
2022-09-04T10:00:52.578Z,21.40
2022-09-04T10:03:38.050Z,21.60
2022-09-04T10:06:41.460Z,21.70
2022-09-04T10:09:23.009Z,21.80
2022-09-04T10:11:49.673Z,22.10
2022-09-04T10:14:40.249Z,22.30
2022-09-04T10:17:37.769Z,22.60
2022-09-04T10:20:41.937Z,22.80
2022-09-04T10:23:57.402Z,22.90
2022-09-04T10:26:49.037Z,23.10
2022-09-04T10:29:37.753Z,23.20
2022-09-04T10:32:33.040Z,23.40
2022-09-04T10:35:21.276Z,23.70
2022-09-04T10:38:25.255Z,23.80
2022-09-04T10:41:15.908Z,23.70
2022-09-04T10:44:16.675Z,23.70
2022-09-04T10:47:21.086Z,24.10
2022-09-04T10:50:22.060Z,24.00
2022-09-04T10:53:08.188Z,23.90
2022-09-04T10:56:17.821Z,24.40
2022-09-04T10:58:59.718Z,24.60
2022-09-04T11:01:56.875Z,25.10
2022-09-04T11:04:45.685Z,25.00
2022-09-04T11:07:34.325Z,25.30
2022-09-04T11:10:14.636Z,25.60
2022-09-04T11:13:06.021Z,25.50
2022-09-04T11:16:16.280Z,25.80
2022-09-04T11:18:49.053Z,25.50
2022-09-04T11:21:24.706Z,25.70
2022-09-04T11:24:35.217Z,25.90
2022-09-04T11:27:34.605Z,26.00
2022-09-04T11:30:12.052Z,26.30
2022-09-04T11:33:23.090Z,26.70
2022-09-04T11:36:06.795Z,26.60
2022-09-04T11:39:02.582Z,26.80
2022-09-04T11:41:45.400Z,26.90
2022-09-04T11:44:38.930Z,26.90
2022-09-04T11:47:45.989Z,26.60
2022-09-04T11:50:52.715Z,26.70
2022-09-04T11:53:40.836Z,26.60
2022-09-04T11:56:13.707Z,26.70
2022-09-04T11:58:49.468Z,27.00
2022-09-04T12:01:27.232Z,27.40
2022-09-04T12:04:32.334Z,27.40
2022-09-04T12:07:22.844Z,27.40
2022-09-04T12:10:17.155Z,27.40
2022-09-04T12:13:14.984Z,27.50
2022-09-04T12:16:07.781Z,27.70
2022-09-04T12:18:46.497Z,27.50
2022-09-04T12:21:22.022Z,27.40
2022-09-04T12:24:07.590Z,27.40
2022-09-04T12:27:02.361Z,27.70
2022-09-04T12:29:50.318Z,28.00
2022-09-04T12:32:38.353Z,28.10
2022-09-04T12:35:06.565Z,27.90
2022-09-04T12:37:57.680Z,28.00
2022-09-04T12:40:48.522Z,27.90
2022-09-04T12:43:21.321Z,28.10
2022-09-04T12:46:16.625Z,28.00
2022-09-04T12:49:04.435Z,28.00
2022-09-04T12:51:50.524Z,28.10
2022-09-04T12:54:50.655Z,28.10
2022-09-04T12:57:46.590Z,28.40
2022-09-04T13:00:17.458Z,28.70
2022-09-04T13:02:59.253Z,28.80
2022-09-04T13:05:53.321Z,29.00
2022-09-04T13:08:41.168Z,29.20
2022-09-04T13:11:48.905Z,29.40
2022-09-04T13:14:47.457Z,29.30
2022-09-04T13:17:26.569Z,28.90
2022-09-04T13:20:18.701Z,29.10
2022-09-04T13:23:12.917Z,29.20
2022-09-04T13:26:02.050Z,29.10
2022-09-04T13:29:01.118Z,29.00
2022-09-04T13:32:05.549Z,29.20
2022-09-04T13:34:47.953Z,29.20
2022-09-04T13:37:45.118Z,29.40
2022-09-04T13:40:55.560Z,29.10
2022-09-04T13:43:34.235Z,29.20
2022-09-04T13:46:12.638Z,29.30
2022-09-04T13:48:57.701Z,29.40
2022-09-04T13:51:32.909Z,29.20
2022-09-04T13:54:27.512Z,29.10
2022-09-04T13:57:10.824Z,29.30
2022-09-04T13:59:38.268Z,29.40
2022-09-04T14:02:12.379Z,29.50
2022-09-04T14:04:44.109Z,29.20
2022-09-04T14:07:44.666Z,29.20
2022-09-04T14:10:21.301Z,29.30
2022-09-04T14:13:14.838Z,29.20
2022-09-04T14:16:03.902Z,29.40
2022-09-04T14:18:51.706Z,29.20
2022-09-04T14:21:26.856Z,29.30
2022-09-04T14:24:03.250Z,29.40
2022-09-04T14:27:03.061Z,29.40
2022-09-04T14:29:51.014Z,29.30
2022-09-04T14:32:57.604Z,29.00
2022-09-04T14:35:50.737Z,28.90
2022-09-04T14:38:58.667Z,29.00
2022-09-04T14:42:13.700Z,29.00
2022-09-04T14:45:09.471Z,28.80
2022-09-04T14:47:47.213Z,29.00
2022-09-04T14:50:17.221Z,29.10
2022-09-04T14:52:54.634Z,28.90
2022-09-04T14:55:28.629Z,28.80
2022-09-04T14:58:23.239Z,28.90
2022-09-04T15:01:01.442Z,29.00
2022-09-04T15:03:36.015Z,29.10
2022-09-04T15:06:32.436Z,28.90
2022-09-04T15:09:38.356Z,28.80
2022-09-04T15:12:25.534Z,28.80
2022-09-04T15:15:09.884Z,29.00
2022-09-04T15:17:46.139Z,28.90
2022-09-04T15:20:22.432Z,28.60
2022-09-04T15:23:01.164Z,28.70
2022-09-04T15:26:01.697Z,28.90
2022-09-04T15:28:46.270Z,28.90
2022-09-04T15:31:17.632Z,28.70
2022-09-04T15:33:47.565Z,28.70
2022-09-04T15:36:18.263Z,28.70
2022-09-04T15:39:02.785Z,28.80
2022-09-04T15:41:49.766Z,28.70
2022-09-04T15:44:29.732Z,28.70
2022-09-04T15:47:23.143Z,28.60
2022-09-04T15:50:00.245Z,28.60
2022-09-04T15:52:46.275Z,28.50
2022-09-04T15:55:37.115Z,28.30
2022-09-04T15:58:30.259Z,28.30
2022-09-04T16:01:09.220Z,28.00
2022-09-04T16:03:55.285Z,27.80
2022-09-04T16:06:55.663Z,27.80
2022-09-04T16:09:48.440Z,27.90
2022-09-04T16:12:27.936Z,27.90
2022-09-04T16:15:12.317Z,27.80
2022-09-04T16:18:02.404Z,27.80
2022-09-04T16:20:51.247Z,27.60
2022-09-04T16:23:27.209Z,27.60
2022-09-04T16:25:58.142Z,27.30
2022-09-04T16:28:43.639Z,27.30
2022-09-04T16:31:14.262Z,27.00
2022-09-04T16:33:50.078Z,26.70
2022-09-04T16:36:40.198Z,26.40
2022-09-04T16:39:19.207Z,26.10
2022-09-04T16:42:10.293Z,26.00
2022-09-04T16:44:44.363Z,25.80
2022-09-04T16:47:17.787Z,25.50
2022-09-04T16:49:53.697Z,25.40
2022-09-04T16:52:35.287Z,25.00
2022-09-04T16:55:11.327Z,24.80
2022-09-04T16:57:53.371Z,24.60
2022-09-04T17:00:22.290Z,24.70
2022-09-04T17:02:55.795Z,24.90
2022-09-04T17:05:41.287Z,24.80
2022-09-04T17:08:07.980Z,24.90
2022-09-04T17:10:43.002Z,24.80
2022-09-04T17:13:22.323Z,24.70
2022-09-04T17:16:07.994Z,24.60
2022-09-04T17:18:41.074Z,24.50
2022-09-04T17:25:57.363Z,24.40
2022-09-04T17:28:58.118Z,24.30
2022-09-04T17:29:12.105Z,24.10
2022-09-04T17:30:44.256Z,23.90
2022-09-04T17:40:36.810Z,23.90
2022-09-04T17:40:40.357Z,23.60
2022-09-04T17:40:41.015Z,23.70
2022-09-04T17:43:17.676Z,23.60
2022-09-04T17:45:46.437Z,23.40
2022-09-04T17:48:27.113Z,23.40
2022-09-04T17:51:01.047Z,23.20
2022-09-04T17:53:34.256Z,22.90
2022-09-04T17:56:19.484Z,22.70
2022-09-04T17:58:54.482Z,22.60
2022-09-04T18:01:50.978Z,22.50
2022-09-04T18:04:33.845Z,22.30
2022-09-04T18:07:55.807Z,22.20
2022-09-04T18:10:15.179Z,22.00
2022-09-04T18:12:53.743Z,21.90
2022-09-04T18:15:34.687Z,21.80
2022-09-04T18:18:12.064Z,21.90
2022-09-04T18:21:09.023Z,22.10
2022-09-04T18:23:51.275Z,22.00
2022-09-04T18:26:41.033Z,21.70
2022-09-04T18:32:20.309Z,21.40
2022-09-04T18:37:09.140Z,21.50
2022-09-04T18:37:26.721Z,21.40
2022-09-04T18:38:37.995Z,21.10
2022-09-04T18:46:48.389Z,21.00
2022-09-04T18:50:31.892Z,21.10
2022-09-04T18:50:43.619Z,21.00
2022-09-04T18:50:47.270Z,20.80
2022-09-04T18:53:20.898Z,20.70
2022-09-04T18:55:52.037Z,20.70
2022-09-04T18:58:39.675Z,20.70
2022-09-04T19:01:27.422Z,20.70
2022-09-04T19:04:19.219Z,20.60
2022-09-04T19:06:53.296Z,20.50
2022-09-04T19:09:58.204Z,20.40
2022-09-04T19:12:35.915Z,20.30
2022-09-04T19:15:36.812Z,20.20
2022-09-04T19:18:22.193Z,20.10
2022-09-04T19:20:58.042Z,20.10
2022-09-04T19:23:34.030Z,20.00
2022-09-04T19:26:08.222Z,19.90
2022-09-04T19:28:52.693Z,20.00
2022-09-04T19:31:35.084Z,20.10
2022-09-04T19:34:35.254Z,20.00
2022-09-04T19:37:24.651Z,19.90
2022-09-04T19:43:52.629Z,19.90
2022-09-04T19:46:18.861Z,19.80
2022-09-04T19:46:27.874Z,19.70
2022-09-04T19:52:32.196Z,19.60
2022-09-04T19:53:29.641Z,19.60
2022-09-04T19:55:44.675Z,19.40
2022-09-04T19:58:14.148Z,19.40
2022-09-04T20:01:24.054Z,19.20
2022-09-04T20:03:58.001Z,18.90
2022-09-04T20:06:30.244Z,19.10
2022-09-04T20:09:26.204Z,19.20
2022-09-04T20:12:01.001Z,19.10
2022-09-04T20:14:34.520Z,18.80
2022-09-04T20:17:16.067Z,18.90
2022-09-04T20:19:48.533Z,18.80
2022-09-04T20:22:46.178Z,18.60
2022-09-04T20:25:29.582Z,18.60
2022-09-04T20:28:31.344Z,18.70
2022-09-04T20:31:35.342Z,18.20
2022-09-04T20:34:15.601Z,18.10
2022-09-04T20:36:49.362Z,18.30
2022-09-04T20:39:34.263Z,18.20
2022-09-04T20:42:22.836Z,18.00
2022-09-04T20:47:58.204Z,18.20
2022-09-04T20:52:54.895Z,18.10
2022-09-04T20:52:55.661Z,18.20
2022-09-04T20:54:23.586Z,18.10
2022-09-04T21:03:07.377Z,18.10
2022-09-04T21:03:22.521Z,18.00
2022-09-04T21:03:33.952Z,18.00
2022-09-04T21:06:24.382Z,18.00
2022-09-04T21:09:14.834Z,18.40
2022-09-04T21:11:47.125Z,18.40
2022-09-04T21:14:44.890Z,18.40
2022-09-04T21:17:34.499Z,18.40
2022-09-04T21:20:16.852Z,18.30
2022-09-04T21:23:05.510Z,18.20
2022-09-04T21:25:47.947Z,18.10
2022-09-04T21:28:26.544Z,18.10
2022-09-04T21:31:02.857Z,18.10
2022-09-04T21:33:42.670Z,18.10
2022-09-04T21:36:29.071Z,18.20
2022-09-04T21:39:10.781Z,18.30
2022-09-04T21:42:16.444Z,18.30
2022-09-04T21:45:18.689Z,18.50
2022-09-04T21:47:57.597Z,18.50
2022-09-04T21:50:48.254Z,18.30
2022-09-04T21:53:52.787Z,18.00
2022-09-04T21:59:32.694Z,18.00
2022-09-04T22:02:39.683Z,17.60
2022-09-04T22:03:29.694Z,17.70
2022-09-04T22:07:03.546Z,17.80
2022-09-04T22:13:42.849Z,17.60
2022-09-04T22:13:48.015Z,17.40
2022-09-04T22:17:24.413Z,17.40
2022-09-04T22:20:34.841Z,17.10
2022-09-04T22:23:46.682Z,16.80
2022-09-04T22:26:24.033Z,17.00
2022-09-04T22:29:39.945Z,17.00
2022-09-04T22:32:28.238Z,16.90
2022-09-04T22:35:16.603Z,16.80
2022-09-04T22:38:04.496Z,17.00
2022-09-04T22:41:00.933Z,17.10
2022-09-04T22:43:29.505Z,17.30
2022-09-04T22:46:44.747Z,17.30
2022-09-04T22:49:36.078Z,17.50
2022-09-04T22:52:28.264Z,17.70
2022-09-04T22:55:36.183Z,17.60
2022-09-04T22:58:44.054Z,17.60
2022-09-04T23:01:44.791Z,17.60
2022-09-04T23:04:43.763Z,17.50
2022-09-04T23:12:51.409Z,17.10
2022-09-04T23:13:44.174Z,16.80
2022-09-04T23:14:07.606Z,16.70
2022-09-04T23:17:11.573Z,16.50
2022-09-04T23:24:32.938Z,16.70
2022-09-04T23:26:41.491Z,16.60
2022-09-04T23:26:48.242Z,16.70
2022-09-04T23:29:45.300Z,16.60
2022-09-04T23:32:45.437Z,16.80
2022-09-04T23:35:27.342Z,16.40
2022-09-04T23:38:16.634Z,16.40
2022-09-04T23:40:53.981Z,16.40
2022-09-04T23:43:46.201Z,16.40
2022-09-04T23:46:24.480Z,16.40
2022-09-04T23:49:31.238Z,16.40
2022-09-04T23:52:04.845Z,16.70
2022-09-04T23:55:07.946Z,16.80
2022-09-04T23:57:58.239Z,16.50
